Time;durP1;ratioP1;P1;durP2;ratioP2;P2;SDS_P1;SDS_P2;PMS_P1;PMS_P2;Temp;Humidity;BMP_temperature;BMP_pressure;BME280_temperature;BME280_humidity;BME280_pressure;Samples;Min_cycle;Max_cycle;Signal;HPM_P1;HPM_P2
2022/12/05 00:01:22;;;;;;;17.65;7.55;;;4.60;99.90;;;;;;6154812;23;20523;-86
2022/12/05 00:03:49;;;;;;;19.73;8.23;;;4.70;99.90;;;;;;6156379;23;20024;-85
2022/12/05 00:06:16;;;;;;;20.45;8.18;;;5.60;99.90;;;;;;6154336;23;20048;-85
2022/12/05 00:08:42;;;;;;;21.48;9.57;;;5.60;99.90;;;;;;6153995;23;20029;-84
2022/12/05 00:11:15;;;;;;;18.77;7.93;;;4.70;99.90;;;;;;6156094;23;20010;-85
2022/12/05 00:13:42;;;;;;;19.60;8.20;;;5.10;99.90;;;;;;6154203;23;20017;-85
2022/12/05 00:16:10;;;;;;;23.88;8.90;;;5.20;99.90;;;;;;6156168;23;20014;-86
2022/12/05 00:18:36;;;;;;;21.88;8.90;;;4.80;99.90;;;;;;6155830;23;20504;-86
2022/12/05 00:21:02;;;;;;;24.27;9.57;;;5.10;99.90;;;;;;6156203;23;20014;-86
2022/12/05 00:23:28;;;;;;;26.33;10.23;;;4.80;99.90;;;;;;6156034;23;20113;-86
2022/12/05 00:25:53;;;;;;;22.02;9.63;;;5.10;99.90;;;;;;6156148;23;20089;-85
2022/12/05 00:28:19;;;;;;;17.77;8.50;;;5.20;99.90;;;;;;6155878;23;20376;-86
2022/12/05 00:30:45;;;;;;;19.27;7.18;;;5.30;99.90;;;;;;6155815;23;20019;-84
2022/12/05 00:33:10;;;;;;;20.70;7.93;;;5.30;99.90;;;;;;6154333;23;20044;-83
2022/12/05 00:35:36;;;;;;;16.08;7.15;;;4.80;99.90;;;;;;6156086;23;20017;-84
2022/12/05 00:38:02;;;;;;;20.08;7.53;;;5.10;99.90;;;;;;6154624;23;20018;-84
2022/12/05 00:40:27;;;;;;;21.05;8.93;;;4.90;99.90;;;;;;6156050;23;20088;-85
2022/12/05 00:42:53;;;;;;;19.00;8.45;;;4.60;99.90;;;;;;6154434;23;20052;-85
2022/12/05 00:45:19;;;;;;;20.80;8.32;;;4.80;99.90;;;;;;6129347;23;20081;-84
2022/12/05 00:47:44;;;;;;;15.63;7.57;;;4.80;99.90;;;;;;6155337;23;20021;-85
2022/12/05 00:50:10;;;;;;;24.70;8.70;;;4.90;99.90;;;;;;6168345;23;20487;-85
2022/12/05 00:52:39;;;;;;;20.90;7.85;;;5.70;99.90;;;;;;6158984;23;20021;-85
2022/12/05 00:55:05;;;;;;;15.95;7.28;;;4.80;99.90;;;;;;6159247;23;20519;-85
2022/12/05 00:57:31;;;;;;;16.13;7.03;;;4.90;99.90;;;;;;6185793;23;20079;-85
2022/12/05 00:59:57;;;;;;;15.35;7.50;;;4.20;99.90;;;;;;6159585;23;20017;-86
2022/12/05 01:02:22;;;;;;;19.58;8.25;;;5.30;99.90;;;;;;6159033;23;20093;-85
2022/12/05 01:04:48;;;;;;;16.48;7.70;;;5.80;99.90;;;;;;6185689;23;20136;-85
2022/12/05 01:07:14;;;;;;;18.65;7.38;;;4.10;99.90;;;;;;6158819;23;20448;-84
2022/12/05 01:09:39;;;;;;;14.18;7.38;;;5.00;99.90;;;;;;6185427;23;20032;-85
2022/12/05 01:12:05;;;;;;;15.90;6.35;;;6.00;99.90;;;;;;6159238;23;20041;-85
2022/12/05 01:14:31;;;;;;;10.98;5.38;;;5.00;99.90;;;;;;6185497;23;20486;-85
2022/12/05 01:17:00;;;;;;;13.52;6.10;;;5.80;99.90;;;;;;6185381;23;20079;-85
2022/12/05 01:19:29;;;;;;;14.93;5.78;;;5.10;99.90;;;;;;6158508;23;20486;-85
2022/12/05 01:21:55;;;;;;;12.07;6.15;;;5.50;99.90;;;;;;6184982;23;20044;-85
2022/12/05 01:24:23;;;;;;;14.32;6.85;;;5.60;99.90;;;;;;6184902;23;20497;-85
2022/12/05 01:26:49;;;;;;;11.90;5.88;;;5.40;99.90;;;;;;6159491;23;20100;-86
2022/12/05 01:29:19;;;;;;;12.38;5.80;;;5.10;99.90;;;;;;6185397;23;20013;-85
2022/12/05 01:31:46;;;;;;;13.90;7.22;;;5.20;99.90;;;;;;6158800;23;20013;-86
2022/12/05 01:34:14;;;;;;;12.20;5.60;;;5.20;99.90;;;;;;6158356;23;20025;-85
2022/12/05 01:36:40;;;;;;;12.88;6.32;;;5.20;99.90;;;;;;6185244;23;20056;-85
2022/12/05 01:39:07;;;;;;;15.90;6.28;;;5.20;99.90;;;;;;6185399;23;20071;-86
2022/12/05 01:41:36;;;;;;;12.95;5.60;;;5.30;99.90;;;;;;6185327;23;20397;-85
2022/12/05 01:44:11;;;;;;;11.63;5.75;;;5.30;99.90;;;;;;6185182;23;20023;-85
2022/12/05 01:46:46;;;;;;;10.65;5.63;;;5.30;99.90;;;;;;6158645;23;20017;-85
2022/12/05 01:49:35;;;;;;;11.93;5.13;;;5.30;99.90;;;;;;6185009;23;20469;-85
2022/12/05 01:52:06;;;;;;;12.38;5.40;;;5.40;99.90;;;;;;6158888;23;20033;-86
2022/12/05 01:54:35;;;;;;;10.02;4.53;;;5.30;99.90;;;;;;6184724;23;20096;-85
2022/12/05 01:57:05;;;;;;;8.95;4.70;;;5.10;99.90;;;;;;6185112;23;20020;-86
2022/12/05 01:59:35;;;;;;;9.25;4.75;;;4.70;99.90;;;;;;6158641;23;20017;-86
2022/12/05 02:02:01;;;;;;;8.57;4.80;;;5.30;99.90;;;;;;6158668;23;20032;-86
2022/12/05 02:04:28;;;;;;;10.45;4.55;;;5.40;99.90;;;;;;6185163;23;20444;-85
2022/12/05 02:06:54;;;;;;;9.85;4.63;;;6.10;99.90;;;;;;6185479;23;20412;-85
2022/12/05 02:09:20;;;;;;;10.13;5.00;;;3.90;99.90;;;;;;6159158;23;20021;-85
2022/12/05 02:11:53;;;;;;;8.73;4.55;;;5.90;99.90;;;;;;6185365;23;20017;-85
2022/12/05 02:14:40;;;;;;;7.78;3.78;;;6.10;99.90;;;;;;6158465;23;20021;-85
2022/12/05 02:17:12;;;;;;;13.10;4.00;;;4.70;99.90;;;;;;6184816;23;20021;-85
2022/12/05 02:19:41;;;;;;;10.23;4.35;;;5.30;99.90;;;;;;6158732;23;20021;-85
2022/12/05 02:22:44;;;;;;;11.75;4.70;;;4.00;99.90;;;;;;6159092;23;20096;-85
2022/12/05 02:25:22;;;;;;;9.00;3.75;;;5.20;99.90;;;;;;6158848;23;20459;-85
2022/12/05 02:28:15;;;;;;;8.52;3.67;;;5.20;99.90;;;;;;6158767;23;20017;-85
2022/12/05 02:30:56;;;;;;;7.45;4.40;;;5.20;99.90;;;;;;6159393;23;20021;-86
2022/12/05 02:33:25;;;;;;;7.13;3.47;;;5.40;99.90;;;;;;6185730;23;20440;-85
2022/12/05 02:35:57;;;;;;;7.45;3.13;;;5.20;99.90;;;;;;6186570;23;20019;-86
2022/12/05 02:38:33;;;;;;;8.73;3.78;;;5.60;99.90;;;;;;6160780;23;20466;-86
2022/12/05 02:41:11;;;;;;;;;;;5.80;99.90;;;;;;6160510;23;20048;-85
2022/12/05 02:43:49;;;;;;;6.80;3.15;;;5.20;99.90;;;;;;6160448;23;19916;-83
2022/12/05 02:46:20;;;;;;;8.43;3.65;;;5.20;99.90;;;;;;6186909;23;20020;-85
2022/12/05 02:48:49;;;;;;;6.00;2.08;;;5.40;99.90;;;;;;6186275;23;20028;-85
2022/12/05 02:51:19;;;;;;;5.63;2.40;;;5.20;99.90;;;;;;6155235;23;20021;-84
2022/12/05 02:53:47;;;;;;;5.95;2.53;;;5.90;99.90;;;;;;6156558;23;20505;-84
2022/12/05 02:56:14;;;;;;;6.90;3.08;;;5.20;99.90;;;;;;6156916;23;20021;-85
2022/12/05 02:58:52;;;;;;;5.85;2.63;;;5.20;99.90;;;;;;6156545;23;20456;-85
2022/12/05 03:01:23;;;;;;;5.65;2.58;;;5.10;99.90;;;;;;6156677;23;20385;-85
2022/12/05 03:03:49;;;;;;;5.75;3.13;;;5.20;99.90;;;;;;6154971;23;20105;-84
2022/12/05 03:06:24;;;;;;;6.10;2.80;;;6.10;99.90;;;;;;6154924;23;20024;-85
2022/12/05 03:08:58;;;;;;;5.82;2.65;;;5.80;99.90;;;;;;6155154;23;20044;-84
2022/12/05 03:11:26;;;;;;;6.15;2.90;;;5.20;99.90;;;;;;6156717;23;20017;-84
2022/12/05 03:13:56;;;;;;;6.63;3.25;;;5.70;99.90;;;;;;6156311;23;20017;-85
2022/12/05 03:16:30;;;;;;;8.82;3.72;;;5.70;99.90;;;;;;6156843;23;20339;-85
2022/12/05 03:18:59;;;;;;;10.32;3.67;;;6.70;99.90;;;;;;6156668;23;20336;-84
2022/12/05 03:21:33;;;;;;;4.88;3.00;;;5.20;99.90;;;;;;6156477;23;20025;-84
2022/12/05 03:24:03;;;;;;;5.28;2.45;;;5.20;99.90;;;;;;6154732;23;20022;-84
2022/12/05 03:26:55;;;;;;;5.32;3.08;;;5.20;99.90;;;;;;6155396;23;20052;-85
2022/12/05 03:29:36;;;;;;;9.32;3.42;;;5.90;99.90;;;;;;6037534;23;20487;-85
2022/12/05 03:32:06;;;;;;;5.32;2.85;;;5.20;99.90;;;;;;6013928;23;20027;-85
2022/12/05 03:34:32;;;;;;;5.80;2.58;;;5.20;99.90;;;;;;6013862;23;20025;-84
2022/12/05 03:37:04;;;;;;;7.20;3.45;;;5.60;99.90;;;;;;6013787;23;20019;-84
2022/12/05 03:39:36;;;;;;;7.07;3.13;;;5.70;99.90;;;;;;6037505;23;20098;-85
2022/12/05 03:42:12;;;;;;;9.13;3.22;;;5.20;99.90;;;;;;6037470;23;20015;-84
2022/12/05 03:44:56;;;;;;;6.60;2.80;;;5.20;99.90;;;;;;6013539;23;20030;-84
2022/12/05 03:47:32;;;;;;;5.78;3.50;;;5.20;99.90;;;;;;6013673;23;20400;-84
2022/12/05 03:50:05;;;;;;;5.97;2.85;;;5.20;99.90;;;;;;6013618;23;20482;-84
2022/12/05 03:52:41;;;;;;;5.80;3.08;;;5.40;99.90;;;;;;6013896;23;20392;-85
2022/12/05 03:55:12;;;;;;;6.40;3.00;;;4.40;99.90;;;;;;6037183;23;20383;-85
2022/12/05 03:58:01;;;;;;;9.15;3.58;;;5.90;99.90;;;;;;6013735;23;20066;-84
2022/12/05 04:00:34;;;;;;;12.57;3.92;;;5.20;99.90;;;;;;6013756;23;20513;-84
2022/12/05 04:03:23;;;;;;;7.70;3.60;;;4.60;99.90;;;;;;6037417;23;20487;-84
2022/12/05 04:05:56;;;;;;;9.68;3.53;;;5.00;99.90;;;;;;6045306;23;20100;-85
2022/12/05 04:08:42;;;;;;;5.43;2.95;;;5.70;99.90;;;;;;6156057;23;20085;-86
2022/12/05 04:11:17;;;;;;;6.88;3.33;;;5.20;99.90;;;;;;6156340;23;20345;-85
2022/12/05 04:13:49;;;;;;;6.00;3.20;;;5.80;99.90;;;;;;6156013;23;20024;-85
2022/12/05 04:17:02;;;;;;;8.45;4.00;;;5.20;99.90;;;;;;6156231;23;20089;-85
2022/12/05 04:22:39;;;;;;;9.95;3.15;;;4.70;99.90;;;;;;6155852;23;20053;-84
2022/12/05 04:28:18;;;;;;;10.90;4.43;;;5.80;99.90;;;;;;6154725;23;20080;-85
2022/12/05 04:31:14;;;;;;;8.57;3.65;;;5.20;99.90;;;;;;6156195;23;20348;-86
2022/12/05 04:33:49;;;;;;;8.20;4.22;;;5.70;99.90;;;;;;6154925;23;20460;-85
2022/12/05 04:36:38;;;;;;;7.40;3.08;;;5.20;99.90;;;;;;6155541;23;20020;-85
2022/12/05 04:39:09;;;;;;;8.68;3.53;;;5.20;99.90;;;;;;6156192;23;20021;-85
2022/12/05 04:41:36;;;;;;;9.73;3.65;;;5.20;99.90;;;;;;6156190;23;20020;-85
2022/12/05 04:44:06;;;;;;;9.02;3.95;;;6.00;99.90;;;;;;6155761;23;20022;-84
2022/12/05 04:46:34;;;;;;;7.70;3.53;;;6.80;99.90;;;;;;6154047;23;20052;-84
2022/12/05 04:49:04;;;;;;;8.93;3.80;;;6.10;99.90;;;;;;6154227;23;20017;-85
2022/12/05 04:51:33;;;;;;;11.30;4.72;;;6.00;99.90;;;;;;6185002;23;20368;-85
2022/12/05 04:54:15;;;;;;;9.18;3.17;;;6.60;99.90;;;;;;6185755;23;20021;-84
2022/12/05 04:56:44;;;;;;;6.80;3.15;;;5.30;99.90;;;;;;6185636;23;20017;-84
2022/12/05 04:59:10;;;;;;;10.15;3.67;;;5.50;99.90;;;;;;6185605;23;20111;-84
2022/12/05 05:01:41;;;;;;;10.95;3.13;;;5.10;99.90;;;;;;6185407;23;20440;-85
2022/12/05 05:04:18;;;;;;;11.27;3.78;;;5.00;99.90;;;;;;6185351;23;20013;-86
2022/12/05 05:06:43;;;;;;;8.05;3.20;;;5.20;99.90;;;;;;6134396;23;20017;-85
2022/12/05 05:09:09;;;;;;;7.93;3.33;;;5.20;99.90;;;;;;6185223;23;20071;-84
2022/12/05 05:11:36;;;;;;;7.05;3.70;;;5.90;99.90;;;;;;6185025;23;20059;-85
2022/12/05 05:14:03;;;;;;;8.52;3.75;;;6.20;99.90;;;;;;6185533;23;20067;-84
2022/12/05 05:16:34;;;;;;;9.00;3.55;;;5.70;99.90;;;;;;6158827;23;20017;-85
2022/12/05 05:19:01;;;;;;;6.63;2.40;;;5.20;99.90;;;;;;6184937;23;20028;-84
2022/12/05 05:21:36;;;;;;;9.88;3.17;;;6.90;99.90;;;;;;6185191;23;20024;-84
2022/12/05 05:24:03;;;;;;;7.30;2.75;;;5.10;99.90;;;;;;6185541;23;20100;-84
2022/12/05 05:26:32;;;;;;;7.90;3.42;;;5.20;99.90;;;;;;6158636;23;20031;-85
2022/12/05 05:28:58;;;;;;;14.13;3.63;;;5.70;99.90;;;;;;6185390;23;20088;-85
2022/12/05 05:31:24;;;;;;;5.63;2.85;;;5.20;99.90;;;;;;6185258;23;20089;-86
2022/12/05 05:33:51;;;;;;;13.23;4.65;;;5.20;99.90;;;;;;6185043;23;20016;-86
2022/12/05 05:36:17;;;;;;;8.27;3.03;;;6.60;99.90;;;;;;6158722;23;20017;-85
2022/12/05 05:38:49;;;;;;;7.35;3.28;;;5.70;99.90;;;;;;6158653;23;20029;-85
2022/12/05 05:41:20;;;;;;;6.43;3.08;;;4.80;99.90;;;;;;6185463;23;20041;-87
2022/12/05 05:43:47;;;;;;;7.10;3.47;;;6.00;99.90;;;;;;6158595;23;20053;-86
2022/12/05 05:46:13;;;;;;;9.02;3.38;;;6.40;99.90;;;;;;6159516;23;20013;-85
2022/12/05 05:48:39;;;;;;;8.93;3.05;;;4.10;99.90;;;;;;6185097;23;20429;-85
2022/12/05 05:51:07;;;;;;;7.00;2.58;;;4.70;99.90;;;;;;6184796;23;20044;-85
2022/12/05 05:53:33;;;;;;;8.23;3.17;;;5.20;99.90;;;;;;6185431;23;20017;-85
2022/12/05 05:56:04;;;;;;;7.10;3.42;;;5.00;99.90;;;;;;6184809;23;20021;-86
2022/12/05 05:58:29;;;;;;;7.13;2.42;;;5.30;99.90;;;;;;6158679;23;20064;-85
2022/12/05 06:01:02;;;;;;;7.82;3.33;;;4.00;99.90;;;;;;6158589;23;20025;-85
2022/12/05 06:03:28;;;;;;;6.97;3.38;;;5.10;99.90;;;;;;6159018;23;20021;-85
2022/12/05 06:05:58;;;;;;;7.20;2.67;;;5.60;99.90;;;;;;6184923;23;20016;-85
2022/12/05 06:08:24;;;;;;;5.82;2.42;;;5.10;99.90;;;;;;6186344;23;20035;-87
2022/12/05 06:10:50;;;;;;;9.45;2.85;;;5.60;99.90;;;;;;6160590;23;20021;-85
2022/12/05 06:13:16;;;;;;;7.22;2.92;;;5.20;99.90;;;;;;6187401;23;20016;-85
2022/12/05 06:15:41;;;;;;;15.43;12.25;;;5.30;99.90;;;;;;6185910;23;20020;-85
2022/12/05 06:18:07;;;;;;;11.32;7.45;;;5.70;99.90;;;;;;6160604;23;20031;-85
2022/12/05 06:20:33;;;;;;;17.20;15.75;;;5.70;99.90;;;;;;6160451;23;20017;-85
2022/12/05 06:23:01;;;;;;;62.83;58.75;;;5.70;99.90;;;;;;6160372;23;20075;-87
2022/12/05 06:25:26;;;;;;;156.38;148.15;;;4.60;99.90;;;;;;6160198;23;20024;-86
2022/12/05 06:27:52;;;;;;;200.43;188.15;;;5.20;99.90;;;;;;6160074;23;20021;-85
2022/12/05 06:30:20;;;;;;;216.05;202.88;;;5.10;99.90;;;;;;6160482;23;20043;-86
2022/12/05 06:32:46;;;;;;;9.85;4.15;;;5.20;99.90;;;;;;6187071;23;20024;-85
2022/12/05 06:35:14;;;;;;;13.48;4.05;;;5.60;99.90;;;;;;6160359;23;20052;-86
2022/12/05 06:37:44;;;;;;;13.48;4.72;;;4.20;99.90;;;;;;6186923;23;20380;-87
2022/12/05 06:40:11;;;;;;;9.07;3.28;;;5.30;99.90;;;;;;6160105;23;20024;-87
2022/12/05 06:42:37;;;;;;;10.40;4.40;;;5.20;99.90;;;;;;6160121;23;20062;-86
2022/12/05 06:45:04;;;;;;;7.75;3.72;;;6.10;99.90;;;;;;6186626;23;20028;-85
2022/12/05 06:47:30;;;;;;;154.30;141.88;;;5.20;99.90;;;;;;6160642;23;20021;-86
2022/12/05 06:49:56;;;;;;;168.07;154.85;;;6.20;99.90;;;;;;6159762;23;20099;-85
2022/12/05 06:52:22;;;;;;;236.77;221.63;;;5.70;99.90;;;;;;6160269;23;20023;-85
2022/12/05 06:54:48;;;;;;;156.55;143.18;;;4.50;99.90;;;;;;6159862;23;20091;-85
2022/12/05 06:57:14;;;;;;;272.55;251.75;;;6.20;99.90;;;;;;6185927;23;20025;-85
2022/12/05 06:59:39;;;;;;;143.63;133.45;;;5.40;99.90;;;;;;6186368;23;20028;-84
2022/12/05 07:02:07;;;;;;;123.18;115.57;;;5.20;99.90;;;;;;6186211;23;20511;-84
2022/12/05 07:04:33;;;;;;;121.15;113.35;;;5.80;99.90;;;;;;6159721;23;20016;-84
2022/12/05 07:07:01;;;;;;;157.90;145.60;;;6.20;99.90;;;;;;6159928;23;20024;-86
2022/12/05 07:09:46;;;;;;;6.97;2.65;;;5.30;99.90;;;;;;6159963;23;20017;-86
2022/12/05 07:12:17;;;;;;;9.40;3.20;;;4.20;99.90;;;;;;6159639;23;20025;-86
2022/12/05 07:14:44;;;;;;;5.20;2.78;;;5.40;99.90;;;;;;6186645;23;20020;-87
2022/12/05 07:17:10;;;;;;;9.25;3.17;;;6.20;99.90;;;;;;6159720;23;20075;-87
2022/12/05 07:19:36;;;;;;;5.90;2.80;;;5.30;99.90;;;;;;6185336;23;20017;-86
2022/12/05 07:22:02;;;;;;;8.25;4.03;;;6.10;99.90;;;;;;6159836;23;20441;-86
2022/12/05 07:24:28;;;;;;;6.90;2.55;;;3.80;99.90;;;;;;6159631;23;20053;-86
2022/12/05 07:26:56;;;;;;;6.05;2.65;;;5.50;99.90;;;;;;6186344;23;20067;-87
2022/12/05 07:29:22;;;;;;;12.68;5.05;;;5.10;99.90;;;;;;6159880;23;20109;-86
2022/12/05 07:31:47;;;;;;;8.98;3.35;;;5.90;99.90;;;;;;6159598;23;20052;-86
2022/12/05 07:34:13;;;;;;;7.20;4.68;;;5.40;99.90;;;;;;6159927;23;20029;-86
2022/12/05 07:36:39;;;;;;;46.20;43.08;;;5.40;99.90;;;;;;6160280;23;20028;-85
2022/12/05 07:39:05;;;;;;;11.20;3.40;;;5.30;99.90;;;;;;6159653;23;20021;-86
2022/12/05 07:41:32;;;;;;;5.75;2.70;;;4.90;99.90;;;;;;6159672;23;20112;-85
2022/12/05 07:43:59;;;;;;;8.48;3.28;;;6.20;99.90;;;;;;6186529;23;20067;-86
2022/12/05 07:46:27;;;;;;;8.43;3.05;;;5.30;99.90;;;;;;6159329;23;20017;-86
2022/12/05 07:48:56;;;;;;;21.15;19.60;;;6.40;99.90;;;;;;6186530;23;20021;-85
2022/12/05 07:51:22;;;;;;;5.57;3.03;;;5.90;99.90;;;;;;6159701;23;20092;-85
2022/12/05 07:53:49;;;;;;;13.07;9.02;;;5.90;99.90;;;;;;6186333;23;20017;-86
2022/12/05 07:56:20;;;;;;;33.40;31.23;;;5.90;99.90;;;;;;6185366;23;20013;-88
2022/12/05 07:58:48;;;;;;;72.88;68.60;;;5.50;99.90;;;;;;6186132;23;20099;-87
2022/12/05 08:01:17;;;;;;;148.32;140.25;;;5.70;99.90;;;;;;6186029;23;20463;-87
2022/12/05 08:03:44;;;;;;;96.63;91.65;;;5.50;99.90;;;;;;6186279;23;20013;-87
2022/12/05 08:06:18;;;;;;;64.22;60.58;;;5.20;99.90;;;;;;6159429;23;20048;-86
2022/12/05 08:08:48;;;;;;;11.85;10.85;;;5.50;99.90;;;;;;6159445;23;20075;-85
2022/12/05 08:11:17;;;;;;;58.70;55.70;;;6.40;99.90;;;;;;6159970;23;20341;-86
2022/12/05 08:13:43;;;;;;;27.33;25.33;;;5.30;99.90;;;;;;6159525;23;20029;-86
2022/12/05 08:16:12;;;;;;;76.18;71.95;;;6.10;99.90;;;;;;6158946;23;20027;-86
2022/12/05 08:18:38;;;;;;;56.45;53.45;;;6.50;99.90;;;;;;6185922;23;20053;-85
2022/12/05 08:21:31;;;;;;;55.97;53.00;;;5.00;99.90;;;;;;6186044;23;20013;-86
2022/12/05 08:23:57;;;;;;;292.67;265.83;;;4.30;99.90;;;;;;6178755;23;20017;-85
2022/12/05 08:26:25;;;;;;;297.27;266.88;;;5.50;99.90;;;;;;6158820;23;20017;-84
2022/12/05 08:28:55;;;;;;;268.95;248.45;;;5.50;99.90;;;;;;6185956;23;20096;-84
2022/12/05 08:31:23;;;;;;;282.98;259.55;;;5.40;99.90;;;;;;6185631;23;20087;-85
2022/12/05 08:33:50;;;;;;;251.75;234.90;;;4.50;99.90;;;;;;6185898;23;20013;-84
2022/12/05 08:36:16;;;;;;;276.67;216.57;;;6.20;99.90;;;;;;6185921;23;20023;-85
2022/12/05 08:38:43;;;;;;;294.20;267.55;;;6.20;99.90;;;;;;6185847;23;20120;-87
2022/12/05 08:41:15;;;;;;;350.13;236.90;;;4.70;99.90;;;;;;6185336;23;20024;-85
2022/12/05 08:43:41;;;;;;;161.38;149.05;;;6.10;99.90;;;;;;6160171;23;20017;-85
2022/12/05 08:46:07;;;;;;;270.50;252.00;;;5.50;99.90;;;;;;6158967;23;20017;-84
2022/12/05 08:48:34;;;;;;;265.48;246.65;;;6.00;99.90;;;;;;6185313;23;20063;-83
2022/12/05 08:51:08;;;;;;;365.98;241.23;;;6.00;99.90;;;;;;6185267;23;20067;-86
2022/12/05 08:53:35;;;;;;;280.20;257.42;;;5.50;99.90;;;;;;6186062;23;20025;-84
2022/12/05 08:56:02;;;;;;;232.43;205.25;;;6.00;99.90;;;;;;6185317;23;20013;-88
2022/12/05 08:58:28;;;;;;;433.98;300.88;;;5.90;99.90;;;;;;6185545;23;20016;-86
2022/12/05 09:01:16;;;;;;;448.70;304.60;;;6.10;99.90;;;;;;6160056;23;20448;-85
2022/12/05 09:08:15;;;;;;;265.10;207.63;;;5.50;99.90;;;;;;5913635;23;20372;-88
2022/12/05 09:11:05;;;;;;;;;;;;;;;;;;;;;
2022/12/05 09:13:56;;;;;;;277.13;213.88;;;5.70;99.90;;;;;;5769597;24;20039;-86
2022/12/05 09:20:43;;;;;;;324.23;277.55;;;5.50;99.90;;;;;;5790935;24;20053;-84
2022/12/05 09:23:08;;;;;;;501.90;287.38;;;5.50;99.90;;;;;;5790920;24;20097;-85
2022/12/05 09:25:34;;;;;;;539.53;311.17;;;5.50;99.90;;;;;;5769013;24;20337;-84
2022/12/05 09:28:00;;;;;;;499.90;282.67;;;6.30;99.90;;;;;;5769210;24;20031;-84
2022/12/05 09:30:25;;;;;;;519.65;292.13;;;5.20;99.90;;;;;;5769188;24;20076;-85
2022/12/05 09:32:51;;;;;;;510.85;286.67;;;5.90;99.90;;;;;;5791243;24;20349;-85
2022/12/05 09:35:17;;;;;;;653.50;340.67;;;6.10;99.90;;;;;;5768728;24;20511;-87
2022/12/05 09:37:42;;;;;;;777.53;352.90;;;5.50;99.90;;;;;;5790809;24;20027;-86
2022/12/05 09:40:15;;;;;;;578.88;312.15;;;5.60;99.90;;;;;;5790850;24;20518;-85
2022/12/05 09:43:04;;;;;;;12.73;4.32;;;5.60;99.90;;;;;;5807564;24;20055;-84
2022/12/05 09:45:37;;;;;;;11.90;3.83;;;6.00;99.90;;;;;;5954458;24;20017;-87
2022/12/05 09:48:12;;;;;;;8.35;3.72;;;5.60;99.90;;;;;;6106172;23;20029;-86
2022/12/05 09:50:44;;;;;;;9.73;3.10;;;5.50;99.90;;;;;;6160863;23;20021;-88
2022/12/05 09:53:22;;;;;;;13.07;3.47;;;5.60;99.90;;;;;;6161055;23;20103;-85
2022/12/05 09:55:53;;;;;;;7.63;3.25;;;5.60;99.90;;;;;;6160896;23;20028;-84
2022/12/05 09:58:25;;;;;;;10.15;3.55;;;5.80;99.90;;;;;;6160866;23;20025;-85
2022/12/05 10:01:02;;;;;;;13.63;4.07;;;5.60;99.90;;;;;;6161014;23;20025;-84
2022/12/05 10:03:44;;;;;;;8.43;2.92;;;5.60;99.90;;;;;;6187275;23;20464;-88
2022/12/05 10:06:16;;;;;;;9.77;3.42;;;5.60;99.90;;;;;;6187313;23;20013;-84
2022/12/05 10:09:23;;;;;;;9.25;3.28;;;5.50;99.90;;;;;;6159765;23;20075;-86
2022/12/05 10:12:19;;;;;;;6.28;3.00;;;5.90;99.90;;;;;;6038647;23;20051;-86
2022/12/05 10:14:54;;;;;;;6.87;3.63;;;5.50;99.90;;;;;;6013029;23;20083;-86
2022/12/05 10:17:29;;;;;;;8.32;3.28;;;5.60;99.90;;;;;;6038325;23;20334;-85
2022/12/05 10:19:59;;;;;;;7.60;3.30;;;5.50;99.90;;;;;;6038331;23;20030;-88
2022/12/05 10:22:49;;;;;;;11.07;4.93;;;5.60;99.90;;;;;;6038468;23;20485;-85
2022/12/05 10:25:20;;;;;;;13.18;3.83;;;5.60;99.90;;;;;;6013684;23;20027;-86
2022/12/05 10:27:57;;;;;;;7.10;2.83;;;5.60;99.90;;;;;;6038049;23;20023;-86
2022/12/05 10:30:26;;;;;;;6.57;2.72;;;5.50;99.90;;;;;;6037458;23;20072;-88
2022/12/05 10:33:02;;;;;;;8.80;3.30;;;6.50;99.90;;;;;;6037438;23;20022;-88
2022/12/05 10:35:36;;;;;;;7.95;3.17;;;5.50;99.90;;;;;;6012189;23;20023;-85
2022/12/05 10:38:14;;;;;;;7.25;2.58;;;5.50;99.90;;;;;;6038069;23;20343;-85
2022/12/05 10:40:44;;;;;;;7.60;2.53;;;5.50;99.90;;;;;;6038226;23;20047;-85
2022/12/05 10:43:15;;;;;;;51.10;47.90;;;6.10;99.90;;;;;;6153046;23;20063;-84
2022/12/05 10:45:44;;;;;;;75.75;71.57;;;6.30;99.90;;;;;;6160333;23;20024;-86
2022/12/05 10:48:13;;;;;;;7.43;2.08;;;6.20;99.90;;;;;;6186354;23;20008;-84
2022/12/05 10:50:41;;;;;;;7.50;2.47;;;5.80;99.90;;;;;;6186581;23;20043;-85
2022/12/05 10:53:12;;;;;;;260.67;239.63;;;5.50;99.90;;;;;;6186742;23;20352;-84
2022/12/05 10:55:49;;;;;;;6.03;2.70;;;6.70;99.90;;;;;;6159836;23;20100;-83
2022/12/05 10:58:27;;;;;;;32.88;30.80;;;5.60;99.90;;;;;;6160279;23;20104;-83
2022/12/05 11:01:19;;;;;;;6.13;2.67;;;6.40;99.90;;;;;;6185887;23;20025;-84
2022/12/05 11:03:45;;;;;;;37.92;34.70;;;5.60;99.90;;;;;;6179328;23;20348;-84
2022/12/05 11:06:24;;;;;;;156.07;142.20;;;6.40;99.90;;;;;;6159493;23;20044;-84
2022/12/05 11:08:58;;;;;;;233.93;217.45;;;5.50;99.90;;;;;;6159934;23;20017;-83
2022/12/05 11:11:29;;;;;;;10.20;8.05;;;5.90;99.90;;;;;;6159568;23;20044;-83
2022/12/05 11:13:56;;;;;;;23.63;22.08;;;5.60;99.90;;;;;;6159632;23;20104;-84
2022/12/05 11:16:31;;;;;;;12.00;10.82;;;5.70;99.90;;;;;;6186075;23;20017;-86
2022/12/05 11:19:20;;;;;;;128.35;121.40;;;6.50;99.90;;;;;;6185997;23;20021;-83
2022/12/05 11:21:46;;;;;;;237.63;221.48;;;5.50;99.90;;;;;;6185757;23;20013;-87
2022/12/05 11:24:32;;;;;;;166.98;157.20;;;5.60;99.90;;;;;;6184399;23;20344;-86
2022/12/05 11:27:19;;;;;;;113.20;106.50;;;5.50;99.90;;;;;;6158618;23;20021;-84
2022/12/05 11:30:12;;;;;;;153.00;140.85;;;6.20;99.90;;;;;;6185568;23;20071;-84
2022/12/05 11:32:38;;;;;;;127.93;119.47;;;5.40;99.90;;;;;;6158754;23;20017;-87
2022/12/05 11:35:17;;;;;;;260.65;235.48;;;6.50;99.90;;;;;;6159080;23;20029;-84
2022/12/05 11:38:04;;;;;;;159.27;146.02;;;5.50;99.90;;;;;;6186252;23;20088;-85
2022/12/05 11:40:48;;;;;;;162.23;151.82;;;5.50;99.90;;;;;;6159636;23;20021;-85
2022/12/05 11:43:55;;;;;;;172.25;161.88;;;5.50;99.90;;;;;;6185845;23;20009;-86
2022/12/05 11:46:29;;;;;;;128.95;121.95;;;5.50;99.90;;;;;;6013590;23;20172;-85
2022/12/05 11:49:15;;;;;;;161.43;152.63;;;5.40;99.90;;;;;;6037292;23;20024;-85
2022/12/05 11:51:59;;;;;;;204.57;182.27;;;5.90;99.90;;;;;;6037261;23;20027;-85
2022/12/05 11:54:42;;;;;;;62.65;58.78;;;5.50;99.90;;;;;;6013479;23;20065;-86
2022/12/05 11:57:46;;;;;;;68.45;64.80;;;5.40;99.90;;;;;;6037198;23;20023;-85
2022/12/05 12:00:59;;;;;;;176.65;164.88;;;5.40;99.90;;;;;;6036472;23;20023;-86
2022/12/05 12:04:11;;;;;;;128.43;119.85;;;5.40;99.90;;;;;;5924787;24;20028;-85
2022/12/05 12:06:58;;;;;;;49.33;46.92;;;5.40;99.90;;;;;;5925407;24;20327;-84
2022/12/05 12:09:39;;;;;;;96.85;91.95;;;5.40;99.90;;;;;;5902153;24;20029;-85
2022/12/05 12:12:23;;;;;;;61.63;58.08;;;5.40;99.90;;;;;;5925170;23;20021;-85
2022/12/05 12:15:00;;;;;;;41.33;38.95;;;5.90;99.90;;;;;;5925541;24;20020;-83
2022/12/05 12:17:45;;;;;;;28.70;26.85;;;5.40;99.90;;;;;;5924710;24;20079;-84
2022/12/05 12:20:11;;;;;;;64.55;61.25;;;5.40;99.90;;;;;;5925106;24;20025;-86
2022/12/05 12:23:14;;;;;;;120.57;114.18;;;6.30;99.90;;;;;;5921560;23;20011;-83
2022/12/05 12:26:05;;;;;;;103.60;98.57;;;5.40;99.90;;;;;;6012398;23;20019;-83
2022/12/05 12:28:49;;;;;;;26.35;24.67;;;5.40;99.90;;;;;;5952530;24;20059;-83
2022/12/05 12:31:37;;;;;;;9.77;3.65;;;5.40;99.90;;;;;;5953459;24;20504;-85
2022/12/05 12:34:31;;;;;;;21.88;20.35;;;6.10;99.90;;;;;;5952443;24;20061;-85
2022/12/05 12:37:25;;;;;;;5.25;3.67;;;5.40;99.90;;;;;;5952465;24;20024;-87
2022/12/05 12:40:03;;;;;;;9.73;9.05;;;5.40;99.90;;;;;;6086258;23;20022;-85
2022/12/05 12:42:40;;;;;;;6.95;5.03;;;5.90;99.90;;;;;;6070354;23;20018;-86
2022/12/05 12:45:35;;;;;;;13.35;12.48;;;5.50;99.90;;;;;;6094149;23;20022;-85
2022/12/05 12:48:20;;;;;;;27.45;25.83;;;5.50;99.90;;;;;;6094211;23;20014;-87
2022/12/05 12:50:52;;;;;;;7.30;5.03;;;5.50;99.90;;;;;;6094322;23;20038;-86
2022/12/05 12:53:45;;;;;;;6.05;1.95;;;5.50;99.90;;;;;;6093894;23;20031;-85
2022/12/05 12:56:14;;;;;;;111.53;105.93;;;5.50;99.90;;;;;;6070069;23;20022;-85
2022/12/05 12:58:57;;;;;;;131.80;124.90;;;5.50;99.90;;;;;;6094027;23;20566;-84
2022/12/05 13:01:34;;;;;;;77.95;73.85;;;5.50;99.90;;;;;;6070051;23;20054;-85
2022/12/05 13:04:23;;;;;;;21.35;20.13;;;5.50;99.90;;;;;;6070143;23;20414;-83
2022/12/05 13:07:18;;;;;;;6.15;1.55;;;5.80;99.90;;;;;;6158277;23;20104;-84
2022/12/05 13:09:49;;;;;;;4.65;1.35;;;6.00;99.90;;;;;;6180555;23;20013;-84
2022/12/05 13:12:21;;;;;;;2.13;1.05;;;5.40;99.90;;;;;;6185117;23;20023;-85
2022/12/05 13:14:59;;;;;;;6.57;1.63;;;5.50;99.90;;;;;;6185518;23;20091;-84
2022/12/05 13:17:26;;;;;;;4.50;1.30;;;5.60;99.90;;;;;;6158186;23;20435;-84
2022/12/05 13:19:52;;;;;;;6.00;1.52;;;6.00;99.90;;;;;;6159580;23;20348;-85
2022/12/05 13:22:23;;;;;;;3.83;1.30;;;6.50;99.90;;;;;;6185175;23;20500;-83
2022/12/05 13:24:52;;;;;;;2.20;1.05;;;5.50;99.90;;;;;;6184853;23;20017;-85
2022/12/05 13:27:24;;;;;;;4.68;1.00;;;6.40;99.90;;;;;;6158750;23;20020;-85
2022/12/05 13:29:55;;;;;;;5.97;1.52;;;5.50;99.90;;;;;;6184855;23;20028;-84